createdAt,value
2023-02-09T00:00:01.856Z,17.75
2023-02-09T00:02:28.722Z,18.30
2023-02-09T00:04:55.290Z,17.40
2023-02-09T00:07:21.859Z,16.88
2023-02-09T00:09:48.325Z,17.10
2023-02-09T00:12:33.503Z,16.90
2023-02-09T00:15:00.000Z,17.75
2023-02-09T00:17:26.871Z,17.13
2023-02-09T00:19:56.208Z,17.48
2023-02-09T00:22:22.748Z,17.00
2023-02-09T00:24:49.344Z,16.80
2023-02-09T00:27:15.936Z,18.15
2023-02-09T00:29:42.319Z,18.60
2023-02-09T00:32:08.807Z,18.30
2023-02-09T00:34:35.291Z,17.40
2023-02-09T00:37:01.670Z,17.75
2023-02-09T00:39:28.064Z,17.08
2023-02-09T00:42:06.788Z,17.48
2023-02-09T00:44:34.119Z,17.30
2023-02-09T00:47:01.195Z,17.13
2023-02-09T00:49:27.875Z,17.42
2023-02-09T00:51:54.405Z,18.20
2023-02-09T00:54:21.024Z,16.23
2023-02-09T00:56:47.472Z,17.83
2023-02-09T00:59:14.103Z,17.15
2023-02-09T01:01:40.756Z,16.58
2023-02-09T01:04:07.206Z,16.27
2023-02-09T01:06:33.635Z,16.45
2023-02-09T01:09:00.085Z,17.63
2023-02-09T01:11:28.367Z,17.88
2023-02-09T01:13:56.274Z,16.98
2023-02-09T01:16:22.930Z,17.73
2023-02-09T01:18:49.395Z,17.38
2023-02-09T01:21:20.696Z,16.33
2023-02-09T01:23:47.564Z,17.17
2023-02-09T01:26:15.158Z,16.40
2023-02-09T01:28:42.314Z,17.50
2023-02-09T01:31:19.265Z,16.75
2023-02-09T01:33:45.744Z,16.92
2023-02-09T01:36:12.170Z,16.13
2023-02-09T01:38:38.658Z,16.48
2023-02-09T01:41:05.190Z,16.60
2023-02-09T01:43:47.943Z,16.75
2023-02-09T01:46:14.395Z,16.33
2023-02-09T01:48:41.534Z,16.98
2023-02-09T01:51:08.057Z,16.63
2023-02-09T01:53:34.770Z,15.95
2023-02-09T01:56:04.469Z,14.88
2023-02-09T01:58:31.370Z,16.23
2023-02-09T02:00:59.949Z,16.58
2023-02-09T02:03:28.118Z,15.73
2023-02-09T02:05:57.162Z,16.80
2023-02-09T02:08:27.466Z,15.45
2023-02-09T02:10:54.273Z,14.80
2023-02-09T02:13:21.008Z,16.65
2023-02-09T02:15:53.926Z,15.85
2023-02-09T02:18:30.445Z,16.38
2023-02-09T02:20:56.845Z,16.77
2023-02-09T02:23:43.233Z,16.50
2023-02-09T02:26:28.664Z,16.13
2023-02-09T02:29:13.936Z,15.73
2023-02-09T02:31:52.664Z,15.52
2023-02-09T02:34:19.150Z,15.98
2023-02-09T02:37:04.169Z,16.15
2023-02-09T02:39:36.995Z,16.70
2023-02-09T02:42:28.769Z,16.17
2023-02-09T02:45:08.627Z,16.58
2023-02-09T02:47:37.943Z,15.93
2023-02-09T02:50:24.692Z,16.08
2023-02-09T02:52:52.939Z,16.70
2023-02-09T02:55:21.099Z,16.48
2023-02-09T02:57:49.639Z,16.80
2023-02-09T03:00:18.419Z,16.20
2023-02-09T03:02:49.688Z,15.25
2023-02-09T03:05:17.731Z,16.63
2023-02-09T03:07:44.298Z,15.55
2023-02-09T03:10:24.453Z,15.30
2023-02-09T03:13:01.235Z,15.60
2023-02-09T03:15:33.715Z,15.88
2023-02-09T03:20:35.437Z,14.73
2023-02-09T03:23:04.478Z,15.80
2023-02-09T03:25:32.304Z,15.68
2023-02-09T03:28:02.551Z,15.93
2023-02-09T03:30:29.528Z,16.42
2023-02-09T03:32:56.431Z,16.08
2023-02-09T03:35:25.139Z,15.90
2023-02-09T03:37:51.702Z,15.15
2023-02-09T03:40:19.411Z,16.58
2023-02-09T03:42:45.827Z,16.13
2023-02-09T03:45:12.330Z,16.00
2023-02-09T03:47:38.762Z,15.93
2023-02-09T03:50:06.842Z,16.30
2023-02-09T03:52:33.527Z,15.45
2023-02-09T03:54:59.969Z,16.35
2023-02-09T03:57:26.393Z,15.68
2023-02-09T03:59:52.894Z,16.55
2023-02-09T04:02:19.380Z,16.80
2023-02-09T04:04:45.946Z,16.15
2023-02-09T04:07:14.005Z,16.33
2023-02-09T04:09:40.449Z,16.55
2023-02-09T04:12:07.055Z,16.50
2023-02-09T04:14:33.465Z,16.98
2023-02-09T04:16:59.921Z,17.45
2023-02-09T04:19:26.344Z,16.98
2023-02-09T04:21:52.920Z,17.20
2023-02-09T04:24:19.381Z,16.00
2023-02-09T04:26:45.791Z,17.20
2023-02-09T04:29:12.274Z,17.58
2023-02-09T04:31:38.886Z,17.30
2023-02-09T04:34:05.336Z,17.63
2023-02-09T04:36:31.817Z,16.88
2023-02-09T04:38:58.280Z,16.98
2023-02-09T04:41:24.742Z,16.90
2023-02-09T04:43:51.284Z,16.98
2023-02-09T04:46:18.563Z,17.52
2023-02-09T04:48:45.715Z,17.27
2023-02-09T04:51:12.119Z,16.92
2023-02-09T04:53:38.757Z,17.08
2023-02-09T04:56:05.592Z,17.75
2023-02-09T04:58:50.757Z,16.58
2023-02-09T05:01:19.359Z,16.80
2023-02-09T05:03:45.913Z,16.50
2023-02-09T05:06:12.488Z,17.35
2023-02-09T05:08:38.914Z,17.10
2023-02-09T05:11:05.442Z,16.42
2023-02-09T05:13:31.967Z,15.88
2023-02-09T05:15:58.392Z,16.85
2023-02-09T05:18:25.044Z,15.85
2023-02-09T05:20:52.463Z,16.50
2023-02-09T05:23:19.052Z,16.27
2023-02-09T05:25:46.243Z,16.15
2023-02-09T05:28:12.937Z,16.83
2023-02-09T05:30:39.607Z,16.10
2023-02-09T05:33:06.127Z,17.30
2023-02-09T05:35:32.602Z,17.23
2023-02-09T05:37:58.986Z,17.98
2023-02-09T05:40:25.494Z,16.63
2023-02-09T05:42:52.238Z,16.95
2023-02-09T05:45:18.693Z,17.70
2023-02-09T05:47:45.430Z,19.15
2023-02-09T05:50:11.864Z,18.30
2023-02-09T05:52:38.351Z,18.48
2023-02-09T05:55:04.860Z,17.80
2023-02-09T05:57:31.242Z,19.52
2023-02-09T05:59:57.690Z,19.13
2023-02-09T06:02:24.133Z,18.13
2023-02-09T06:04:50.631Z,18.33
2023-02-09T06:07:17.026Z,19.08
2023-02-09T06:09:43.507Z,19.17
2023-02-09T06:12:09.933Z,19.63
2023-02-09T06:14:36.443Z,18.42
2023-02-09T06:17:02.963Z,18.80
2023-02-09T06:19:30.230Z,18.83
2023-02-09T06:21:56.815Z,18.48
2023-02-09T06:24:23.264Z,18.58
2023-02-09T06:26:49.888Z,19.63
2023-02-09T06:29:16.328Z,18.98
2023-02-09T06:31:42.896Z,19.55
2023-02-09T06:34:09.713Z,20.60
2023-02-09T06:36:36.210Z,19.13
2023-02-09T06:39:02.655Z,20.02
2023-02-09T06:41:29.147Z,19.50
2023-02-09T06:43:55.685Z,19.25
2023-02-09T06:46:22.322Z,20.40
2023-02-09T06:48:49.080Z,19.20
2023-02-09T06:51:16.680Z,19.73
2023-02-09T06:53:43.480Z,19.98
2023-02-09T06:56:10.442Z,19.20
2023-02-09T06:58:37.606Z,20.27
2023-02-09T07:01:04.566Z,20.20
2023-02-09T07:03:31.193Z,18.20
2023-02-09T07:06:02.905Z,19.60
2023-02-09T07:08:29.316Z,20.52
2023-02-09T07:10:55.843Z,20.90
2023-02-09T07:13:22.407Z,19.98
2023-02-09T07:15:58.568Z,21.20
2023-02-09T07:18:25.525Z,20.83
2023-02-09T07:20:55.627Z,21.50
2023-02-09T07:23:22.205Z,21.38
2023-02-09T07:25:48.664Z,20.05
2023-02-09T07:28:15.258Z,21.30
2023-02-09T07:30:42.186Z,21.42
2023-02-09T07:33:08.794Z,20.58
2023-02-09T07:35:35.303Z,20.27
2023-02-09T07:38:01.762Z,20.67
2023-02-09T07:40:28.370Z,20.05
2023-02-09T07:42:54.788Z,20.05
2023-02-09T07:45:21.253Z,21.15
2023-02-09T07:47:47.821Z,19.73
2023-02-09T07:50:14.274Z,19.27
2023-02-09T07:52:40.776Z,18.42
2023-02-09T07:55:07.464Z,19.50
2023-02-09T07:57:33.828Z,18.42
2023-02-09T08:00:00.240Z,17.63
2023-02-09T08:02:29.768Z,17.13
2023-02-09T08:04:58.219Z,16.05
2023-02-09T08:07:25.532Z,16.30
2023-02-09T08:09:51.915Z,15.95
2023-02-09T08:12:18.538Z,15.10
2023-02-09T08:14:48.557Z,15.00
2023-02-09T08:17:28.005Z,13.30
2023-02-09T08:19:56.816Z,13.70
2023-02-09T08:22:23.809Z,13.30
2023-02-09T08:24:50.490Z,12.10
2023-02-09T08:27:16.939Z,12.30
2023-02-09T08:29:43.597Z,12.43
2023-02-09T08:32:10.033Z,11.75
2023-02-09T08:34:36.545Z,11.48
2023-02-09T08:37:03.037Z,11.60
2023-02-09T08:39:29.466Z,12.13
2023-02-09T08:41:55.876Z,11.68
2023-02-09T08:44:22.341Z,10.98
2023-02-09T08:46:49.141Z,11.45
2023-02-09T08:49:15.656Z,11.18
2023-02-09T08:51:42.059Z,11.73
2023-02-09T08:54:08.483Z,10.48
2023-02-09T08:56:34.943Z,10.75
2023-02-09T08:59:01.464Z,10.50
2023-02-09T09:01:28.106Z,9.60
2023-02-09T09:03:54.702Z,10.02
2023-02-09T09:06:22.205Z,9.85
2023-02-09T09:08:48.602Z,9.02
2023-02-09T09:11:15.068Z,9.23
2023-02-09T09:13:41.885Z,9.15
2023-02-09T09:16:13.375Z,9.20
2023-02-09T09:18:39.860Z,8.70
2023-02-09T09:21:06.439Z,8.15
2023-02-09T09:23:32.851Z,7.75
2023-02-09T09:26:02.787Z,7.97
2023-02-09T09:28:29.874Z,8.30
2023-02-09T09:30:56.617Z,8.55
2023-02-09T09:33:23.089Z,8.40
2023-02-09T09:35:49.852Z,8.30
2023-02-09T09:38:16.255Z,7.95
2023-02-09T09:40:44.559Z,7.43
2023-02-09T09:43:18.731Z,7.40
2023-02-09T09:45:46.227Z,8.05
2023-02-09T09:48:39.320Z,7.18
2023-02-09T09:53:33.501Z,7.57
2023-02-09T09:56:05.177Z,6.57
2023-02-09T09:58:32.648Z,6.97
2023-02-09T10:00:59.266Z,6.93
2023-02-09T10:03:25.768Z,6.50
2023-02-09T10:05:53.787Z,7.18
2023-02-09T10:08:39.404Z,6.43
2023-02-09T10:11:08.811Z,6.63
2023-02-09T10:13:55.576Z,6.38
2023-02-09T10:16:27.244Z,5.97
2023-02-09T10:19:20.110Z,6.75
2023-02-09T10:24:14.527Z,6.13
2023-02-09T10:26:42.994Z,5.68
2023-02-09T10:29:12.486Z,6.45
2023-02-09T10:31:41.468Z,6.70
2023-02-09T10:34:15.411Z,6.28
2023-02-09T10:36:50.016Z,6.60
2023-02-09T10:39:16.492Z,6.65
2023-02-09T10:41:44.535Z,6.68
2023-02-09T10:44:19.412Z,7.13
2023-02-09T10:46:47.477Z,6.78
2023-02-09T10:49:46.570Z,6.53
2023-02-09T10:52:12.983Z,6.50
2023-02-09T10:54:43.316Z,5.80
2023-02-09T10:57:30.044Z,6.18
2023-02-09T10:59:57.882Z,6.57
2023-02-09T11:02:30.349Z,6.05
2023-02-09T11:07:25.424Z,5.90
2023-02-09T11:09:52.223Z,6.05
2023-02-09T11:12:22.699Z,6.15
2023-02-09T11:14:49.107Z,6.30
2023-02-09T11:17:18.564Z,6.25
2023-02-09T11:19:47.826Z,5.85
2023-02-09T11:22:32.971Z,5.38
2023-02-09T11:25:04.845Z,5.68
2023-02-09T11:27:37.676Z,4.32
2023-02-09T11:30:13.125Z,5.30
2023-02-09T11:32:44.955Z,5.53
2023-02-09T11:35:12.454Z,5.72
2023-02-09T11:37:47.836Z,5.45
2023-02-09T11:40:40.691Z,5.20
2023-02-09T11:45:50.041Z,5.55
2023-02-09T11:48:28.350Z,5.28
2023-02-09T11:51:07.007Z,5.38
2023-02-09T11:53:47.930Z,5.30
2023-02-09T11:56:19.281Z,5.10
2023-02-09T11:58:45.756Z,5.75
2023-02-09T12:01:16.383Z,5.15
2023-02-09T12:03:55.490Z,5.00
2023-02-09T12:06:23.136Z,5.43
2023-02-09T12:08:53.844Z,5.07
2023-02-09T12:11:27.294Z,4.80
2023-02-09T12:14:08.798Z,5.00
2023-02-09T12:19:04.534Z,5.30
2023-02-09T12:21:33.710Z,5.38
2023-02-09T12:24:00.602Z,5.32
2023-02-09T12:26:43.754Z,4.63
2023-02-09T12:29:37.464Z,4.70
2023-02-09T12:32:03.889Z,4.28
2023-02-09T12:34:30.447Z,5.07
2023-02-09T12:37:01.975Z,4.50
2023-02-09T12:39:29.377Z,5.07
2023-02-09T12:41:56.110Z,5.07
2023-02-09T12:44:22.574Z,5.25
2023-02-09T12:46:55.595Z,4.82
2023-02-09T12:49:28.220Z,5.05
2023-02-09T12:52:00.796Z,4.50
2023-02-09T12:54:36.441Z,4.57
2023-02-09T12:57:15.274Z,4.88
2023-02-09T12:59:53.719Z,4.70
2023-02-09T13:02:30.156Z,4.30
2023-02-09T13:04:56.547Z,4.75
2023-02-09T13:07:27.049Z,4.50
2023-02-09T13:09:54.681Z,4.85
2023-02-09T13:12:28.304Z,4.45
2023-02-09T13:14:54.823Z,4.80
2023-02-09T13:17:38.332Z,4.80
2023-02-09T13:20:13.617Z,4.47
2023-02-09T13:22:58.764Z,4.72
2023-02-09T13:25:34.204Z,4.10
2023-02-09T13:28:08.238Z,4.40
2023-02-09T13:30:36.357Z,4.40
2023-02-09T13:33:18.120Z,4.28
2023-02-09T13:35:50.727Z,4.20
2023-02-09T13:38:18.425Z,4.22
2023-02-09T13:40:46.440Z,4.10
2023-02-09T13:43:12.799Z,4.70
2023-02-09T13:45:49.539Z,4.25
2023-02-09T13:48:26.696Z,3.83
2023-02-09T13:50:54.340Z,3.83
2023-02-09T13:53:24.354Z,3.88
2023-02-09T13:55:51.784Z,3.72
2023-02-09T13:58:20.540Z,3.80
2023-02-09T14:00:51.759Z,3.85
2023-02-09T14:03:18.274Z,3.97
2023-02-09T14:05:51.063Z,3.97
2023-02-09T14:08:18.346Z,4.13
2023-02-09T14:10:54.062Z,4.05
2023-02-09T14:13:20.415Z,3.83
2023-02-09T14:16:07.176Z,3.85
2023-02-09T14:18:33.672Z,3.53
2023-02-09T14:21:13.377Z,3.50
2023-02-09T14:23:47.635Z,4.13
2023-02-09T14:26:14.015Z,3.65
2023-02-09T14:28:40.978Z,4.00
2023-02-09T14:31:21.129Z,3.72
2023-02-09T14:33:48.977Z,4.00
2023-02-09T14:36:22.367Z,3.85
2023-02-09T14:38:52.021Z,4.00
2023-02-09T14:41:24.776Z,3.60
2023-02-09T14:44:01.532Z,3.45
2023-02-09T14:46:28.400Z,3.70
2023-02-09T14:48:58.199Z,3.63
2023-02-09T14:51:27.512Z,3.67
2023-02-09T14:53:53.934Z,4.10
2023-02-09T14:56:28.244Z,3.50
2023-02-09T14:58:54.967Z,4.20
2023-02-09T15:01:21.414Z,4.07
2023-02-09T15:03:47.899Z,3.70
2023-02-09T15:06:15.067Z,4.10
2023-02-09T15:08:41.784Z,4.43
2023-02-09T15:11:28.766Z,3.58
2023-02-09T15:13:59.770Z,4.10
2023-02-09T15:16:26.261Z,3.75
2023-02-09T15:18:52.883Z,3.97
2023-02-09T15:21:19.290Z,4.20
2023-02-09T15:23:45.719Z,4.25
2023-02-09T15:26:16.525Z,4.40
2023-02-09T15:28:43.410Z,4.65
2023-02-09T15:31:13.367Z,4.65
2023-02-09T15:33:41.448Z,5.10
2023-02-09T15:36:08.399Z,4.80
2023-02-09T15:38:34.825Z,4.93
2023-02-09T15:41:20.077Z,4.70
2023-02-09T15:44:04.921Z,4.65
2023-02-09T15:47:00.333Z,4.90
2023-02-09T15:49:26.770Z,4.90
2023-02-09T15:51:53.254Z,4.93
2023-02-09T15:54:20.964Z,5.10
2023-02-09T15:56:47.656Z,5.38
2023-02-09T15:59:23.560Z,5.18
2023-02-09T16:01:50.677Z,5.28
2023-02-09T16:04:17.323Z,5.43
2023-02-09T16:06:45.810Z,5.28
2023-02-09T16:09:17.418Z,5.63
2023-02-09T16:11:43.863Z,5.47
2023-02-09T16:14:15.296Z,5.78
2023-02-09T16:16:41.875Z,6.03
2023-02-09T16:19:08.421Z,5.55
2023-02-09T16:21:34.911Z,6.03
2023-02-09T16:24:02.582Z,6.90
2023-02-09T16:26:30.187Z,6.43
2023-02-09T16:28:56.903Z,5.90
2023-02-09T16:31:23.710Z,6.20
2023-02-09T16:33:52.854Z,6.20
2023-02-09T16:36:20.695Z,5.82
2023-02-09T16:38:47.161Z,6.05
2023-02-09T16:41:50.781Z,5.93
2023-02-09T16:44:24.600Z,6.13
2023-02-09T16:46:52.618Z,5.43
2023-02-09T16:49:31.610Z,5.93
2023-02-09T16:52:00.752Z,5.88
2023-02-09T16:54:27.933Z,6.38
2023-02-09T16:56:54.908Z,5.55
2023-02-09T16:59:21.598Z,7.03
2023-02-09T17:01:48.734Z,6.22
2023-02-09T17:04:15.420Z,6.53
2023-02-09T17:06:41.860Z,6.45
2023-02-09T17:09:15.329Z,6.22
2023-02-09T17:11:41.883Z,6.90
2023-02-09T17:14:08.382Z,6.50
2023-02-09T17:16:36.884Z,6.28
2023-02-09T17:19:04.583Z,6.80
2023-02-09T17:21:34.918Z,6.57
2023-02-09T17:24:01.435Z,6.82
2023-02-09T17:26:28.205Z,6.63
2023-02-09T17:28:55.377Z,6.90
2023-02-09T17:31:21.778Z,7.45
2023-02-09T17:33:50.826Z,7.10
2023-02-09T17:36:26.305Z,6.93
2023-02-09T17:38:53.736Z,7.15
2023-02-09T17:41:21.877Z,7.32
2023-02-09T17:43:49.381Z,7.53
2023-02-09T17:46:18.820Z,7.18
2023-02-09T17:48:46.275Z,7.53
2023-02-09T17:51:20.132Z,8.40
2023-02-09T17:53:46.873Z,7.85
2023-02-09T17:56:16.638Z,7.65
2023-02-09T17:58:45.997Z,8.05
2023-02-09T18:01:26.494Z,7.97
2023-02-09T18:03:57.398Z,7.20
2023-02-09T18:06:35.220Z,8.02
2023-02-09T18:09:02.190Z,8.00
2023-02-09T18:11:47.016Z,7.78
2023-02-09T18:14:14.327Z,7.15
2023-02-09T18:16:41.425Z,7.32
2023-02-09T18:19:08.160Z,8.02
2023-02-09T18:21:35.026Z,7.15
2023-02-09T18:24:01.508Z,8.20
2023-02-09T18:26:28.006Z,7.50
2023-02-09T18:28:54.450Z,7.78
2023-02-09T18:31:20.871Z,6.95
2023-02-09T18:33:47.326Z,7.13
2023-02-09T18:36:14.826Z,7.20
2023-02-09T18:38:41.329Z,7.15
2023-02-09T18:41:10.454Z,7.18
2023-02-09T18:43:37.476Z,6.38
2023-02-09T18:46:03.997Z,7.10
2023-02-09T18:48:30.563Z,6.60
2023-02-09T18:50:57.066Z,7.53
2023-02-09T18:53:23.545Z,7.40
2023-02-09T18:55:53.225Z,7.43
2023-02-09T18:58:19.752Z,7.13
2023-02-09T19:00:46.246Z,7.05
2023-02-09T19:03:12.891Z,7.03
2023-02-09T19:05:39.295Z,6.68
2023-02-09T19:08:07.405Z,6.13
2023-02-09T19:10:35.950Z,6.38
2023-02-09T19:13:02.847Z,6.65
2023-02-09T19:15:29.650Z,6.50
2023-02-09T19:17:56.969Z,6.03
2023-02-09T19:20:26.414Z,5.90
2023-02-09T19:22:53.263Z,6.35
2023-02-09T19:25:20.580Z,5.78
2023-02-09T19:27:47.055Z,5.68
2023-02-09T19:30:14.753Z,5.57
2023-02-09T19:32:41.432Z,5.40
2023-02-09T19:35:07.994Z,5.47
2023-02-09T19:37:34.913Z,5.57
2023-02-09T19:40:05.196Z,5.38
2023-02-09T19:42:32.458Z,5.53
2023-02-09T19:44:59.251Z,5.47
2023-02-09T19:47:27.080Z,5.18
2023-02-09T19:49:54.718Z,6.05
2023-02-09T19:52:21.525Z,5.97
2023-02-09T19:54:48.883Z,5.57
2023-02-09T19:57:15.536Z,5.80
2023-02-09T19:59:42.058Z,5.28
2023-02-09T20:02:10.085Z,5.20
2023-02-09T20:04:37.535Z,5.03
2023-02-09T20:07:04.069Z,4.88
2023-02-09T20:09:30.666Z,5.50
2023-02-09T20:14:23.525Z,5.70
2023-02-09T20:16:52.109Z,5.85
2023-02-09T20:19:18.475Z,5.15
2023-02-09T20:21:44.956Z,5.30
2023-02-09T20:24:12.144Z,5.18
2023-02-09T20:26:38.601Z,5.28
2023-02-09T20:29:05.798Z,5.32
2023-02-09T20:31:34.806Z,5.35
2023-02-09T20:34:04.965Z,5.68
2023-02-09T20:36:32.744Z,5.18
2023-02-09T20:38:59.172Z,5.38
2023-02-09T20:41:25.635Z,6.28
2023-02-09T20:44:10.499Z,6.35
2023-02-09T20:47:00.291Z,6.30
2023-02-09T20:49:31.165Z,6.32
2023-02-09T20:51:58.262Z,6.70
2023-02-09T20:54:25.162Z,6.43
2023-02-09T20:56:51.728Z,6.50
2023-02-09T20:59:18.211Z,6.78
2023-02-09T21:01:45.973Z,6.43
2023-02-09T21:04:12.476Z,7.13
2023-02-09T21:06:39.235Z,6.28
2023-02-09T21:09:06.680Z,6.10
2023-02-09T21:11:33.385Z,6.45
2023-02-09T21:14:01.410Z,7.00
2023-02-09T21:16:28.377Z,7.60
2023-02-09T21:18:54.775Z,6.70
2023-02-09T21:21:32.096Z,7.53
2023-02-09T21:23:59.540Z,6.88
2023-02-09T21:26:26.007Z,6.72
2023-02-09T21:28:58.704Z,6.47
2023-02-09T21:31:27.033Z,7.32
2023-02-09T21:33:53.879Z,7.10
2023-02-09T21:36:20.249Z,6.68
2023-02-09T21:38:46.744Z,6.97
2023-02-09T21:41:34.321Z,7.07
2023-02-09T21:44:01.249Z,6.72
2023-02-09T21:46:28.244Z,6.63
2023-02-09T21:48:54.841Z,6.28
2023-02-09T21:51:21.266Z,6.50
2023-02-09T21:53:47.967Z,6.88
2023-02-09T21:56:14.530Z,6.35
2023-02-09T21:58:41.174Z,6.82
2023-02-09T22:01:07.759Z,6.10
2023-02-09T22:03:34.193Z,6.78
2023-02-09T22:06:01.676Z,6.35
2023-02-09T22:08:28.653Z,6.50
2023-02-09T22:10:55.515Z,6.10
2023-02-09T22:13:21.909Z,5.72
2023-02-09T22:15:48.294Z,6.03
2023-02-09T22:18:14.768Z,6.05
2023-02-09T22:20:42.147Z,6.20
2023-02-09T22:23:08.672Z,5.65
2023-02-09T22:25:36.049Z,6.47
2023-02-09T22:28:03.313Z,5.80
2023-02-09T22:30:29.766Z,5.95
2023-02-09T22:32:56.227Z,5.22
2023-02-09T22:35:22.951Z,5.10
2023-02-09T22:37:49.322Z,5.70
2023-02-09T22:40:15.925Z,5.55
2023-02-09T22:42:42.448Z,5.80
2023-02-09T22:45:09.243Z,5.30
2023-02-09T22:47:35.708Z,5.10
2023-02-09T22:50:02.128Z,4.55
2023-02-09T22:52:28.486Z,5.05
2023-02-09T22:54:54.902Z,5.25
2023-02-09T22:57:21.296Z,5.78
2023-02-09T22:59:47.688Z,5.30
2023-02-09T23:02:14.226Z,5.10
2023-02-09T23:04:40.639Z,4.55
2023-02-09T23:07:07.049Z,4.13
2023-02-09T23:09:33.444Z,4.53
2023-02-09T23:11:59.853Z,4.88
2023-02-09T23:14:26.274Z,4.95
2023-02-09T23:16:52.787Z,4.72
2023-02-09T23:19:19.882Z,5.30
2023-02-09T23:21:47.712Z,4.80
2023-02-09T23:24:15.567Z,4.68
2023-02-09T23:26:42.104Z,4.82
2023-02-09T23:29:10.483Z,4.50
2023-02-09T23:31:37.229Z,5.20
2023-02-09T23:34:03.726Z,4.78
2023-02-09T23:36:31.604Z,4.72
2023-02-09T23:38:59.263Z,4.97
2023-02-09T23:41:26.190Z,4.50
2023-02-09T23:43:53.047Z,5.07
2023-02-09T23:46:21.459Z,5.22
2023-02-09T23:48:47.992Z,4.57
2023-02-09T23:51:15.660Z,5.00
2023-02-09T23:53:42.105Z,4.60
2023-02-09T23:56:08.459Z,4.78
2023-02-09T23:58:39.174Z,4.72
